Time;durP1;ratioP1;P1;durP2;ratioP2;P2;SDS_P1;SDS_P2;PMS_P1;PMS_P2;Temp;Humidity;BMP_temperature;BMP_pressure;BME280_temperature;BME280_humidity;BME280_pressure;Samples;Min_cycle;Max_cycle;Signal;HPM_P1;HPM_P2
2022/01/28 00:00:12;;;;;;;5.37;3.13;;;;;;;-145.69;100.00;73683.44;5074151;28;20279;-77
2022/01/28 00:03:00;;;;;;;5.57;2.70;;;;;;;-145.69;100.00;73671.47;5074105;28;20239;-77
2022/01/28 00:05:28;;;;;;;6.20;2.93;;;;;;;-145.69;100.00;73687.41;5073808;28;20205;-78
2022/01/28 00:07:56;;;;;;;4.90;2.53;;;;;;;-145.69;100.00;73671.47;5073483;28;20195;-77
2022/01/28 00:10:25;;;;;;;5.07;2.53;;;;;;;-145.69;100.00;73667.50;5073961;28;20203;-77
2022/01/28 00:15:39;;;;;;;6.90;2.67;;;;;;;-145.69;100.00;73671.47;5062809;28;20288;-77
2022/01/28 00:36:25;;;;;;;5.57;3.20;;;;;;;-145.69;100.00;73681.44;5073462;28;20226;-76
2022/01/28 00:37:59;;;;;;;6.07;3.50;;;;;;;-145.69;100.00;73719.25;5072329;28;20210;-77
2022/01/28 00:40:24;;;;;;;6.07;3.23;;;;;;;-145.69;100.00;73719.25;5072980;28;20256;-77
2022/01/28 00:42:50;;;;;;;6.63;3.20;;;;;;;-145.69;100.00;73719.25;5073288;28;20203;-77
2022/01/28 00:45:17;;;;;;;4.70;3.20;;;;;;;-145.69;100.00;73713.28;5072613;28;20203;-77
2022/01/28 00:47:44;;;;;;;5.10;3.10;;;;;;;-145.69;100.00;73723.25;5073310;28;20202;-77
2022/01/28 00:50:11;;;;;;;6.50;3.53;;;;;;;-145.69;100.00;73719.25;5073260;28;20226;-77
2022/01/28 00:52:39;;;;;;;5.17;3.00;;;;;;;-145.69;100.00;73725.25;5073333;28;20199;-77
2022/01/28 00:55:06;;;;;;;5.40;3.10;;;;;;;-145.69;100.00;73727.22;5073096;28;20209;-77
2022/01/28 00:57:33;;;;;;;7.27;3.77;;;;;;;-145.69;100.00;73731.22;5072968;28;20260;-77
2022/01/28 01:00:00;;;;;;;10.40;3.30;;;;;;;-145.69;100.00;73725.25;5073242;28;20202;-77
2022/01/28 01:02:27;;;;;;;3.93;3.10;;;;;;;-145.69;100.00;73733.19;5073106;28;20288;-77
2022/01/28 01:04:53;;;;;;;6.67;3.20;;;;;;;-145.69;100.00;73735.19;5072831;28;20198;-77
2022/01/28 01:07:19;;;;;;;6.73;3.23;;;;;;;-145.69;100.00;73739.19;5070666;28;20192;-77
2022/01/28 01:09:50;;;;;;;7.33;3.87;;;;;;;-145.69;100.00;73743.16;5072979;28;20210;-77
2022/01/28 01:12:20;;;;;;;6.20;3.57;;;;;;;-145.69;100.00;73743.16;5072719;28;20207;-77
2022/01/28 01:14:47;;;;;;;6.83;4.07;;;;;;;-145.69;100.00;73743.16;5072643;28;20266;-78
2022/01/28 01:17:26;;;;;;;8.30;4.37;;;;;;;-145.69;100.00;73743.16;5072687;28;20202;-77
2022/01/28 01:20:05;;;;;;;10.50;4.90;;;;;;;-145.69;100.00;73751.13;5072911;28;20211;-77
2022/01/28 01:22:37;;;;;;;11.43;6.68;;;;;;;-145.69;100.00;73755.09;5072060;28;20924;-77
2022/01/28 01:25:15;;;;;;;13.77;5.77;;;;;;;-145.69;100.00;73751.13;5072856;28;20553;-77
2022/01/28 01:27:41;;;;;;;10.33;5.43;;;;;;;-145.69;100.00;73751.13;5072890;28;20628;-77
2022/01/28 01:30:10;;;;;;;14.73;5.90;;;;;;;-145.69;100.00;73759.09;5072776;28;20264;-77
2022/01/28 01:32:36;;;;;;;11.43;6.17;;;;;;;-145.69;100.00;73767.06;5072762;28;20685;-77
2022/01/28 01:35:02;;;;;;;16.43;7.07;;;;;;;-145.69;100.00;73759.09;5072588;28;20261;-77
2022/01/28 01:37:29;;;;;;;16.27;7.43;;;;;;;-145.69;100.00;73755.09;5072577;28;20198;-77
2022/01/28 01:39:56;;;;;;;21.87;8.10;;;;;;;-145.69;100.00;73769.03;5072730;28;20199;-77
2022/01/28 01:42:32;;;;;;;15.63;7.47;;;;;;;-145.69;100.00;73769.03;5072649;28;20230;-77
2022/01/28 01:53:21;;;;;;;16.93;7.87;;;;;;;-145.69;100.00;73775.00;5072656;28;20194;-77
2022/01/28 01:55:48;;;;;;;18.67;9.13;;;;;;;-145.69;100.00;73765.06;5072545;28;20673;-77
2022/01/28 01:58:19;;;;;;;17.23;8.30;;;;;;;-145.69;100.00;73771.03;5070244;28;20638;-77
2022/01/28 02:00:46;;;;;;;20.93;8.13;;;;;;;-145.69;100.00;73767.06;5072521;28;20302;-77
2022/01/28 02:03:12;;;;;;;18.00;8.17;;;;;;;-145.69;100.00;73775.00;5072615;28;20248;-77
2022/01/28 02:05:39;;;;;;;17.50;8.57;;;;;;;-145.69;100.00;73771.03;5072534;28;20206;-78
2022/01/28 02:08:06;;;;;;;25.27;9.57;;;;;;;-145.69;100.00;73773.03;5071515;28;20194;-77
2022/01/28 02:10:33;;;;;;;21.63;9.47;;;;;;;-145.69;100.00;73781.00;5071426;28;20229;-77
2022/01/28 02:13:01;;;;;;;27.37;9.73;;;;;;;-145.69;100.00;73784.97;5072128;28;20228;-77
2022/01/28 02:15:29;;;;;;;24.30;9.87;;;;;;;-145.69;100.00;73779.00;5072537;28;20205;-76
2022/01/28 02:17:57;;;;;;;21.83;9.00;;;;;;;-145.69;100.00;73782.97;5074044;28;20201;-77
2022/01/28 02:20:31;;;;;;;26.90;12.73;;;;;;;-145.69;100.00;73784.97;5075184;28;20438;-77
2022/01/28 02:22:57;;;;;;;27.10;11.00;;;;;;;-145.69;100.00;73794.94;5075774;28;20226;-77
2022/01/28 02:25:27;;;;;;;22.73;10.27;;;;;;;-145.69;100.00;73800.91;5075451;28;20202;-77
2022/01/28 02:27:54;;;;;;;23.10;9.73;;;;;;;-145.69;100.00;73802.88;5075755;28;20199;-77
2022/01/28 02:30:21;;;;;;;23.47;10.20;;;;;;;-145.69;100.00;73802.88;5075774;28;20682;-76
2022/01/28 02:32:49;;;;;;;26.27;10.43;;;;;;;-145.69;100.00;73802.88;5075949;28;20285;-77
2022/01/28 02:35:16;;;;;;;24.87;9.90;;;;;;;-145.69;100.00;73800.91;5075636;28;20237;-77
2022/01/28 02:37:44;;;;;;;30.20;10.90;;;;;;;-145.69;100.00;73777.00;5075328;28;20562;-77
2022/01/28 02:40:11;;;;;;;24.23;10.27;;;;;;;-145.69;100.00;73796.91;5075796;28;20202;-77
2022/01/28 02:42:52;;;;;;;21.33;9.20;;;;;;;-145.69;100.00;73786.97;5075728;28;20242;-77
2022/01/28 02:45:26;;;;;;;24.53;9.43;;;;;;;-145.69;100.00;73784.97;5075641;28;20705;-77
2022/01/28 02:47:58;;;;;;;25.80;9.70;;;;;;;-145.69;100.00;73796.91;5075658;28;20231;-77
2022/01/28 02:50:27;;;;;;;23.70;9.80;;;;;;;-145.69;100.00;73784.97;5075388;28;20253;-78
2022/01/28 02:53:04;;;;;;;21.53;8.93;;;;;;;-145.69;100.00;73781.00;5075887;28;20203;-77
2022/01/28 02:55:36;;;;;;;21.33;9.27;;;;;;;-145.69;100.00;73792.94;5075631;28;20264;-78
2022/01/28 02:58:16;;;;;;;24.43;9.23;;;;;;;-145.69;100.00;73784.97;5075398;28;20547;-77
2022/01/28 03:00:43;;;;;;;18.63;8.60;;;;;;;-145.69;100.00;73790.94;5075200;28;20237;-77
2022/01/28 03:03:09;;;;;;;21.83;9.20;;;;;;;-145.69;100.00;73796.91;5075109;28;20280;-77
2022/01/28 03:05:36;;;;;;;24.20;9.30;;;;;;;-145.69;100.00;73812.84;5074973;28;20199;-77
2022/01/28 03:08:05;;;;;;;19.03;9.43;;;;;;;-145.69;100.00;73810.84;5071834;28;20205;-77
2022/01/28 03:10:42;;;;;;;23.73;9.30;;;;;;;-145.69;100.00;73798.91;5075287;28;20210;-76
2022/01/28 03:16:07;;;;;;;16.53;8.30;;;;;;;-145.69;100.00;73792.94;5071147;28;20562;-77
2022/01/28 03:18:44;;;;;;;19.00;8.93;;;;;;;-145.69;100.00;73818.81;5074742;28;20723;-77
2022/01/28 03:21:39;;;;;;;19.23;8.87;;;;;;;-145.69;100.00;73816.81;5074774;28;20203;-77
2022/01/28 03:24:09;;;;;;;22.33;10.07;;;;;;;-145.69;100.00;73818.81;5074846;28;20199;-77
2022/01/28 03:26:36;;;;;;;24.57;9.17;;;;;;;-145.69;100.00;73818.81;5075076;28;20214;-77
2022/01/28 03:29:03;;;;;;;21.10;8.50;;;;;;;-145.69;100.00;73820.81;5074557;28;20210;-76
2022/01/28 03:31:30;;;;;;;16.70;8.20;;;;;;;-145.69;100.00;73820.81;5074624;28;20206;-78
2022/01/28 03:33:59;;;;;;;19.00;8.47;;;;;;;-145.69;100.00;73822.81;5074682;28;20222;-77
2022/01/28 03:36:25;;;;;;;16.57;8.53;;;;;;;-145.69;100.00;73826.78;5074355;28;20581;-76
2022/01/28 03:38:52;;;;;;;18.67;8.83;;;;;;;-145.69;100.00;73824.78;5074623;28;20203;-77
2022/01/28 03:41:19;;;;;;;20.53;9.03;;;;;;;-145.69;100.00;73826.78;5074310;28;20210;-76
2022/01/28 03:43:47;;;;;;;17.43;8.47;;;;;;;-145.69;100.00;73832.75;5074535;28;20199;-76
2022/01/28 03:46:14;;;;;;;19.53;9.20;;;;;;;-145.69;100.00;73830.75;5074322;28;20203;-76
2022/01/28 03:48:43;;;;;;;19.63;9.27;;;;;;;-145.69;100.00;73832.75;5074378;28;20293;-77
2022/01/28 03:51:09;;;;;;;24.20;9.67;;;;;;;-145.69;100.00;73830.75;5074416;28;20549;-77
2022/01/28 03:53:36;;;;;;;22.17;10.10;;;;;;;-145.69;100.00;73830.75;5074392;28;20217;-76
2022/01/28 03:56:02;;;;;;;21.03;9.70;;;;;;;-145.69;100.00;73830.75;5074084;28;20209;-77
2022/01/28 03:58:30;;;;;;;20.80;9.90;;;;;;;-145.69;100.00;73830.75;5073884;28;20280;-77
2022/01/28 04:00:58;;;;;;;22.53;9.37;;;;;;;-145.69;100.00;73826.78;5073973;28;20207;-77
2022/01/28 04:03:40;;;;;;;22.17;9.90;;;;;;;-145.69;100.00;73830.75;5074151;28;20226;-77
2022/01/28 04:11:36;;;;;;;23.30;10.77;;;;;;;-145.69;100.00;73832.75;5073828;28;20206;-77
2022/01/28 04:14:13;;;;;;;24.03;10.37;;;;;;;-145.69;100.00;73834.75;5073603;28;20237;-77
2022/01/28 04:19:24;;;;;;;23.47;10.83;;;;;;;-145.69;100.00;73846.69;5073755;28;20198;-77
2022/01/28 04:21:51;;;;;;;24.23;10.63;;;;;;;-145.69;100.00;73844.69;5073409;28;20234;-76
2022/01/28 04:24:18;;;;;;;24.27;10.87;;;;;;;-145.69;100.00;73838.72;5073803;28;20202;-77
2022/01/28 04:26:44;;;;;;;21.67;10.20;;;;;;;-145.69;100.00;73842.72;5073647;28;20658;-76
2022/01/28 04:29:13;;;;;;;22.60;10.03;;;;;;;-145.69;100.00;73838.72;5073533;28;20209;-77
2022/01/28 04:31:42;;;;;;;21.37;10.60;;;;;;;-145.69;100.00;73830.75;5073579;28;20641;-76
2022/01/28 04:34:09;;;;;;;20.47;10.37;;;;;;;-145.69;100.00;73838.72;5073500;28;20199;-78
2022/01/28 04:36:42;;;;;;;28.13;10.60;;;;;;;-145.69;100.00;73836.75;5072914;28;20198;-77
2022/01/28 04:39:15;;;;;;;22.43;9.90;;;;;;;-145.69;100.00;73838.72;5073283;28;20191;-76
2022/01/28 04:41:53;;;;;;;22.83;10.23;;;;;;;-145.69;100.00;73842.72;5072704;28;20311;-77
2022/01/28 04:44:23;;;;;;;18.77;10.17;;;;;;;-145.69;100.00;73840.72;5073384;28;20289;-77
2022/01/28 04:46:58;;;;;;;21.40;10.27;;;;;;;-145.69;100.00;73844.69;5073090;28;20297;-77
2022/01/28 04:49:35;;;;;;;18.73;9.57;;;;;;;-145.69;100.00;73836.75;5073407;28;20281;-77
2022/01/28 04:52:29;;;;;;;24.47;10.10;;;;;;;-145.69;100.00;73852.66;5073422;28;20206;-77
2022/01/28 04:55:05;;;;;;;24.00;9.70;;;;;;;-145.69;100.00;73858.63;5072876;28;20199;-77
2022/01/28 04:57:40;;;;;;;27.07;11.10;;;;;;;-145.69;100.00;73858.63;5073214;28;20194;-77
2022/01/28 05:00:18;;;;;;;26.93;9.77;;;;;;;-145.69;100.00;73854.66;5072990;28;20198;-77
2022/01/28 05:03:09;;;;;;;23.67;10.33;;;;;;;-145.69;100.00;73858.63;5073100;28;20226;-78
2022/01/28 05:06:10;;;;;;;20.13;9.43;;;;;;;-145.69;100.00;73862.63;5072705;28;20245;-77
2022/01/28 05:25:44;;;;;;;21.83;9.80;;;;;;;-145.69;100.00;73868.59;5072924;28;20256;-77
2022/01/28 05:28:14;;;;;;;23.90;9.60;;;;;;;-145.69;100.00;73860.63;5072785;28;20202;-77
2022/01/28 05:30:40;;;;;;;27.40;10.03;;;;;;;-145.69;100.00;73864.63;5072627;28;20203;-76
2022/01/28 05:33:08;;;;;;;23.87;9.57;;;;;;;-145.69;100.00;73870.59;5072913;28;20202;-76
2022/01/28 05:35:34;;;;;;;21.63;9.10;;;;;;;-145.69;100.00;73868.59;5072556;28;20593;-77
2022/01/28 05:38:01;;;;;;;23.93;10.40;;;;;;;-145.69;100.00;73874.56;5072313;28;20674;-77
2022/01/28 05:40:27;;;;;;;24.57;9.90;;;;;;;-145.69;100.00;73876.56;5072654;28;20214;-76
2022/01/28 05:42:54;;;;;;;23.37;9.80;;;;;;;-145.69;100.00;73874.56;5072419;28;20280;-77
2022/01/28 05:45:20;;;;;;;21.20;8.50;;;;;;;-145.69;100.00;73880.53;5072348;28;20682;-76
2022/01/28 05:47:47;;;;;;;22.57;8.70;;;;;;;-145.69;100.00;73874.56;5072522;28;20686;-77
2022/01/28 05:50:14;;;;;;;22.60;10.00;;;;;;;-145.69;100.00;73868.59;5072661;28;20566;-77
2022/01/28 05:52:41;;;;;;;20.60;9.60;;;;;;;-145.69;100.00;73866.59;5075595;28;20638;-77
2022/01/28 05:55:08;;;;;;;22.63;9.57;;;;;;;-145.69;100.00;73876.56;5076676;28;20209;-77
2022/01/28 05:57:35;;;;;;;19.17;8.73;;;;;;;-145.69;100.00;73874.56;5076280;28;20554;-77
2022/01/28 06:00:01;;;;;;;26.10;10.03;;;;;;;-145.69;100.00;73884.53;5076620;28;20199;-77
2022/01/28 06:02:28;;;;;;;26.20;9.07;;;;;;;-145.69;100.00;73878.56;5076241;28;20696;-76
2022/01/28 06:04:54;;;;;;;19.30;9.03;;;;;;;-145.69;100.00;73882.53;5076294;28;20535;-77
2022/01/28 06:07:22;;;;;;;20.23;8.37;;;;;;;-145.69;100.00;73886.50;5076204;28;20207;-77
2022/01/28 06:09:48;;;;;;;22.63;11.57;;;;;;;-145.69;100.00;73886.50;5075094;28;20520;-77
2022/01/28 06:12:15;;;;;;;21.90;9.80;;;;;;;-145.69;100.00;73884.53;5076025;28;20566;-76
2022/01/28 06:14:42;;;;;;;18.47;9.77;;;;;;;-145.69;100.00;73890.50;5076023;28;20234;-77
2022/01/28 06:17:08;;;;;;;20.67;9.57;;;;;;;-145.69;100.00;73902.44;5076179;28;20199;-77
2022/01/28 06:19:34;;;;;;;20.53;9.00;;;;;;;-145.69;100.00;73910.41;5075907;28;20195;-76
2022/01/28 06:22:01;;;;;;;23.50;8.93;;;;;;;-145.69;100.00;73922.34;5075697;28;20209;-77
2022/01/28 06:24:29;;;;;;;24.23;10.03;;;;;;;-145.69;100.00;73918.38;5076045;28;20209;-77
2022/01/28 06:26:55;;;;;;;25.03;10.23;;;;;;;-145.69;100.00;73926.34;5075816;28;20233;-77
2022/01/28 06:29:22;;;;;;;26.47;10.30;;;;;;;-145.69;100.00;73926.34;5075993;28;20225;-76
2022/01/28 06:31:49;;;;;;;23.73;10.53;;;;;;;-145.69;100.00;73928.31;5075849;28;20199;-76
2022/01/28 06:34:16;;;;;;;28.37;10.97;;;;;;;-145.69;100.00;73930.31;5075426;28;20596;-77
2022/01/28 06:36:42;;;;;;;24.23;10.53;;;;;;;-145.69;100.00;73926.34;5075400;28;20195;-76
2022/01/28 06:39:09;;;;;;;21.87;10.10;;;;;;;-145.69;100.00;73936.28;5075657;28;20199;-77
2022/01/28 06:41:39;;;;;;;26.20;10.73;;;;;;;-145.69;100.00;73952.22;5075532;28;20248;-77
2022/01/28 06:44:06;;;;;;;26.73;11.40;;;;;;;-145.69;100.00;73950.22;5075718;28;20227;-76
2022/01/28 06:46:33;;;;;;;21.60;9.83;;;;;;;-145.69;100.00;73956.19;5075654;28;20202;-76
2022/01/28 06:48:59;;;;;;;30.63;11.80;;;;;;;-145.69;100.00;73954.22;5075410;28;20673;-76
2022/01/28 06:51:26;;;;;;;23.60;10.40;;;;;;;-145.69;100.00;73962.19;5075164;28;20199;-77
2022/01/28 06:53:52;;;;;;;24.80;10.80;;;;;;;-145.69;100.00;73972.13;5075368;28;20210;-77
2022/01/28 06:56:18;;;;;;;25.10;11.00;;;;;;;-145.69;100.00;73984.09;5075534;28;20584;-76
2022/01/28 06:58:46;;;;;;;23.90;10.53;;;;;;;-145.69;100.00;73986.06;5075567;28;20202;-77
2022/01/28 07:01:13;;;;;;;26.53;11.57;;;;;;;-145.69;100.00;73982.09;5075525;28;20199;-76
2022/01/28 07:03:39;;;;;;;24.03;10.50;;;;;;;-145.69;100.00;73986.06;5074616;28;20230;-76
2022/01/28 07:06:05;;;;;;;29.03;10.43;;;;;;;-145.69;100.00;73970.16;5075000;28;20199;-77
2022/01/28 07:08:32;;;;;;;36.30;12.97;;;;;;;-145.69;100.00;73974.13;5075004;28;20225;-77
2022/01/28 07:10:58;;;;;;;29.90;11.83;;;;;;;-145.69;100.00;73980.09;5066853;28;20199;-77
2022/01/28 07:13:25;;;;;;;27.17;11.07;;;;;;;-145.69;100.00;73982.09;5054532;28;20713;-76
2022/01/28 07:15:53;;;;;;;25.77;11.10;;;;;;;-145.69;100.00;73984.09;5055033;28;20207;-77
2022/01/28 07:18:20;;;;;;;28.60;11.07;;;;;;;-145.69;100.00;73982.09;5055068;28;20199;-76
2022/01/28 07:20:46;;;;;;;33.57;12.23;;;;;;;-145.69;100.00;73998.03;5054730;28;20195;-76
2022/01/28 07:23:13;;;;;;;29.70;12.20;;;;;;;-145.69;100.00;74011.97;5069922;28;20697;-77
2022/01/28 07:25:39;;;;;;;52.73;19.63;;;;;;;-145.69;100.00;74017.94;5074846;28;20198;-76
2022/01/28 07:28:06;;;;;;;40.53;16.27;;;;;;;-145.69;100.00;74029.88;5074717;28;20569;-76
2022/01/28 07:30:32;;;;;;;35.73;16.53;;;;;;;-145.69;100.00;74017.94;5074903;28;20210;-77
2022/01/28 07:33:04;;;;;;;36.30;12.27;;;;;;;-145.69;100.00;74009.97;5074608;28;20209;-76
2022/01/28 07:35:31;;;;;;;30.43;12.60;;;;;;;-145.69;100.00;74013.94;5074290;28;20195;-77
2022/01/28 07:37:57;;;;;;;31.90;12.77;;;;;;;-145.69;100.00;74015.94;5074542;28;20203;-76
2022/01/28 07:40:24;;;;;;;33.50;13.83;;;;;;;-145.69;100.00;74009.97;5074587;28;20205;-77
2022/01/28 07:42:50;;;;;;;35.33;14.30;;;;;;;-145.69;100.00;74027.88;5074523;28;20226;-76
2022/01/28 07:45:17;;;;;;;31.07;13.03;;;;;;;-145.69;100.00;74017.94;5074308;28;20195;-77
2022/01/28 07:47:44;;;;;;;25.67;11.90;;;;;;;-145.69;100.00;74027.88;5074268;28;20657;-76
2022/01/28 07:50:14;;;;;;;26.43;10.97;;;;;;;-145.69;100.00;74037.84;5074224;28;20205;-77
2022/01/28 07:52:41;;;;;;;29.03;12.07;;;;;;;-145.69;100.00;74039.84;5074410;28;20230;-77
2022/01/28 07:55:10;;;;;;;29.60;11.97;;;;;;;-145.69;100.00;74049.78;5074340;28;20203;-77
2022/01/28 07:57:37;;;;;;;28.77;11.67;;;;;;;-145.69;100.00;74057.75;5074159;28;20195;-76
2022/01/28 08:00:05;;;;;;;27.43;10.40;;;;;;;-145.69;100.00;74057.75;5074176;28;20196;-76
2022/01/28 08:02:31;;;;;;;30.83;10.80;;;;;;;-145.69;100.00;74033.84;5073932;28;20210;-77
2022/01/28 08:04:58;;;;;;;26.60;12.00;;;;;;;-145.69;100.00;74025.91;5073831;28;20217;-76
2022/01/28 08:07:26;;;;;;;26.13;12.13;;;;;;;-145.69;100.00;74029.88;5073856;28;20534;-76
2022/01/28 08:09:52;;;;;;;30.47;11.43;;;;;;;-145.69;100.00;74037.84;5073660;28;20554;-77
2022/01/28 08:12:18;;;;;;;24.10;9.60;;;;;;;-145.69;100.00;74017.94;5073899;28;20608;-76
2022/01/28 08:14:45;;;;;;;23.63;10.80;;;;;;;-145.69;100.00;74019.91;5072965;28;20231;-77
2022/01/28 08:17:12;;;;;;;22.53;9.57;;;;;;;-145.69;100.00;74033.84;5073554;28;20207;-77
2022/01/28 08:19:38;;;;;;;28.93;10.73;;;;;;;-145.69;100.00;74039.84;5073870;28;20198;-77
2022/01/28 08:22:05;;;;;;;23.23;10.37;;;;;;;-145.69;100.00;74037.84;5073559;28;20658;-77
2022/01/28 08:24:33;;;;;;;19.73;9.30;;;;;;;-145.69;100.00;74047.78;5073771;28;20231;-79
2022/01/28 08:27:00;;;;;;;23.53;10.67;;;;;;;-145.69;100.00;74033.84;5073535;28;20206;-79
2022/01/28 08:29:26;;;;;;;31.67;12.00;;;;;;;-145.69;100.00;74029.88;5073692;28;20199;-79
2022/01/28 08:31:53;;;;;;;25.13;10.83;;;;;;;-145.69;100.00;74041.81;5073313;28;20199;-78
2022/01/28 08:34:19;;;;;;;67.20;26.70;;;;;;;-145.69;100.00;74041.81;5073538;28;20207;-79
2022/01/28 08:36:45;;;;;;;22.93;10.43;;;;;;;-145.69;100.00;74057.75;5073206;28;20202;-79
2022/01/28 08:39:12;;;;;;;21.37;9.37;;;;;;;-145.69;100.00;74043.81;5073584;28;20206;-79
2022/01/28 08:41:42;;;;;;;20.57;9.47;;;;;;;-145.69;100.00;74021.91;5073178;28;20213;-80
2022/01/28 08:44:09;;;;;;;20.93;9.40;;;;;;;-145.69;100.00;74011.97;5073430;28;20317;-80
2022/01/28 08:46:35;;;;;;;19.43;9.37;;;;;;;-145.69;100.00;73994.03;5073179;28;20204;-80
2022/01/28 08:49:03;;;;;;;18.83;9.23;;;;;;;-145.69;100.00;73986.06;5073179;28;20202;-79
2022/01/28 08:51:29;;;;;;;21.40;8.63;;;;;;;-145.69;100.00;73980.09;5073402;28;20198;-80
2022/01/28 08:53:56;;;;;;;20.23;9.00;;;;;;;-145.69;100.00;73982.09;5073164;28;20198;-79
2022/01/28 08:56:22;;;;;;;21.07;9.00;;;;;;;-145.69;100.00;73998.03;5073016;28;20656;-80
2022/01/28 08:58:50;;;;;;;23.87;9.40;;;;;;;-145.69;100.00;73982.09;5073001;28;20562;-79
2022/01/28 09:01:17;;;;;;;20.13;8.53;;;;;;;-145.69;100.00;73990.06;5072926;28;20201;-79
2022/01/28 09:03:44;;;;;;;19.57;9.17;;;;;;;-145.69;100.00;74002.00;5072881;28;20238;-79
2022/01/28 09:06:11;;;;;;;17.53;8.87;;;;;;;-145.69;100.00;74005.97;5072807;28;20199;-81
2022/01/28 09:08:39;;;;;;;20.60;9.10;;;;;;;-145.69;100.00;73998.03;5072535;28;20620;-79
2022/01/28 09:11:30;;;;;;;16.53;7.87;;;;;;;-145.69;100.00;74005.97;5072858;28;20290;-79
2022/01/28 09:13:57;;;;;;;18.60;7.77;;;;;;;-145.69;100.00;74017.94;5072603;28;20313;-79
2022/01/28 09:16:23;;;;;;;20.70;7.93;;;;;;;-145.69;100.00;74013.94;5072680;28;20206;-79
2022/01/28 09:18:50;;;;;;;19.50;8.47;;;;;;;-145.69;100.00;74013.94;5072415;28;20209;-79
2022/01/28 09:21:16;;;;;;;18.40;7.83;;;;;;;-145.69;100.00;74011.97;5055133;28;20558;-77
2022/01/28 09:23:43;;;;;;;17.37;8.17;;;;;;;-145.69;100.00;74013.94;5052660;28;20693;-78
2022/01/28 09:26:09;;;;;;;18.70;9.00;;;;;;;-145.69;100.00;74005.97;5052661;28;20214;-78
2022/01/28 09:28:36;;;;;;;17.17;7.80;;;;;;;-145.69;100.00;73966.16;5052439;28;20681;-78
2022/01/28 09:31:04;;;;;;;18.73;7.53;;;;;;;-145.69;100.00;73946.25;5052888;28;20203;-79
2022/01/28 09:33:30;;;;;;;17.13;7.77;;;;;;;-145.69;100.00;73934.31;5052552;28;20200;-77
2022/01/28 09:35:57;;;;;;;13.87;7.00;;;;;;;-145.69;100.00;73922.34;5052396;28;20206;-77
2022/01/28 09:38:23;;;;;;;14.93;7.30;;;;;;;-145.69;100.00;73930.31;5052293;28;20203;-79
2022/01/28 09:40:50;;;;;;;18.47;7.33;;;;;;;-145.69;100.00;73936.28;5072197;28;20202;-77
2022/01/28 09:43:16;;;;;;;16.47;7.33;;;;;;;-145.69;100.00;73934.31;5072598;28;20222;-82
2022/01/28 09:45:47;;;;;;;16.07;7.37;;;;;;;-145.69;100.00;73924.34;5052120;28;20286;-78
2022/01/28 09:48:18;;;;;;;18.07;7.53;;;;;;;-145.69;100.00;73924.34;5052520;28;20196;-78
2022/01/28 09:50:46;;;;;;;13.97;6.87;;;;;;;-145.69;100.00;73920.38;5052261;28;20261;-79
2022/01/28 09:53:14;;;;;;;15.90;7.00;;;;;;;-145.69;100.00;73910.41;5052033;28;20745;-78
2022/01/28 09:55:41;;;;;;;13.03;6.07;;;;;;;-145.69;100.00;73930.31;5052606;28;20223;-77
2022/01/28 09:58:07;;;;;;;10.57;5.67;;;;;;;-145.69;100.00;73920.38;5052464;28;20211;-78
2022/01/28 10:00:34;;;;;;;10.93;5.23;;;;;;;-145.69;100.00;73924.34;5058473;28;20197;-77
2022/01/28 10:03:04;;;;;;;10.30;4.23;;;;;;;-145.69;100.00;73890.50;5072062;28;20658;-77
2022/01/28 10:05:34;;;;;;;10.67;5.40;;;;;;;-145.69;100.00;73880.53;5072264;28;20623;-78
2022/01/28 10:08:10;;;;;;;11.30;5.70;;;;;;;-145.69;100.00;73868.59;5072502;28;20201;-78
2022/01/28 10:10:53;;;;;;;12.07;5.17;;;;;;;-145.69;100.00;73868.59;5072385;28;20596;-77
2022/01/28 10:13:26;;;;;;;14.43;5.23;;;;;;;-145.69;100.00;73860.63;5071979;28;20320;-77
2022/01/28 10:16:05;;;;;;;11.27;4.37;;;;;;;-145.69;100.00;73850.69;5072355;28;20211;-78
2022/01/28 10:18:56;;;;;;;9.77;4.30;;;;;;;-145.69;100.00;73850.69;5072189;28;20260;-77
2022/01/28 10:21:28;;;;;;;7.40;3.43;;;;;;;-145.69;100.00;73852.66;5072227;28;20616;-77
2022/01/28 10:24:14;;;;;;;7.60;3.73;;;;;;;-145.69;96.95;73788.94;5072061;28;20586;-77
2022/01/28 10:26:44;;;;;;;11.17;4.60;;;;;;;-145.69;100.00;73822.81;5072342;28;20199;-77
2022/01/28 10:29:13;;;;;;;9.50;3.87;;;;;;;-145.69;100.00;73812.84;5072144;28;20201;-77
2022/01/28 10:31:47;;;;;;;10.47;4.03;;;;;;;-145.69;100.00;73818.81;5071635;28;20286;-78
2022/01/28 10:34:29;;;;;;;12.47;4.40;;;;;;;-145.69;100.00;73838.72;5051852;28;20199;-78
2022/01/28 10:37:20;;;;;;;10.83;5.17;;;;;;;-145.69;100.00;73888.50;5051780;28;20203;-77
2022/01/28 10:39:50;;;;;;;9.20;4.57;;;;;;;-145.69;100.00;73896.47;5054829;28;20651;-77
2022/01/28 10:42:19;;;;;;;9.77;4.43;;;;;;;-145.69;100.00;73884.53;5055509;28;20210;-77
2022/01/28 10:45:00;;;;;;;11.80;5.07;;;;;;;-145.69;100.00;73854.66;5055214;28;20318;-77
2022/01/28 10:47:35;;;;;;;7.33;4.10;;;;;;;-145.69;100.00;73860.63;5058726;28;20195;-78
2022/01/28 10:50:16;;;;;;;12.83;5.00;;;;;;;-145.69;100.00;73848.69;5075578;28;20209;-78
2022/01/28 10:52:44;;;;;;;8.07;4.30;;;;;;;-145.69;100.00;73862.63;5075372;28;20210;-79
2022/01/28 10:55:17;;;;;;;11.93;5.10;;;;;;;-145.69;100.00;73806.88;5075614;28;20207;-78
2022/01/28 10:57:56;;;;;;;12.43;4.40;;;;;;;-145.69;99.68;73818.81;5075100;28;20294;-78
2022/01/28 11:00:23;;;;;;;11.10;5.00;;;;;;;-145.69;100.00;73818.81;5074830;28;20198;-78
2022/01/28 11:02:49;;;;;;;9.97;5.00;;;;;;;-145.69;100.00;73836.75;5074860;28;20206;-77
2022/01/28 11:05:16;;;;;;;9.53;4.57;;;;;;;-145.69;100.00;73830.75;5074833;28;20226;-77
2022/01/28 11:07:44;;;;;;;11.37;4.13;;;;;;;-145.69;100.00;73798.91;5075339;28;20596;-78
2022/01/28 11:10:11;;;;;;;10.77;4.07;;;;;;;-145.69;95.95;73810.84;5075040;28;20214;-77
2022/01/28 11:12:39;;;;;;;10.27;5.10;;;;;;;-145.69;96.64;73816.81;5074859;28;20608;-79
2022/01/28 11:15:06;;;;;;;17.87;4.50;;;;;;;-145.69;96.76;73775.00;5075321;28;20233;-79
2022/01/28 11:17:35;;;;;;;6.07;4.43;;;;;;;-145.69;96.86;73782.97;5074609;28;20203;-79
2022/01/28 11:20:03;;;;;;;10.53;4.50;;;;;;;-145.69;99.74;73790.94;5074820;28;20203;-79
2022/01/28 11:22:56;;;;;;;8.23;4.37;;;;;;;-145.69;100.00;73818.81;5074818;28;20210;-79
2022/01/28 11:25:35;;;;;;;10.73;4.23;;;;;;;-145.69;99.48;73806.88;5066390;28;20234;-79
2022/01/28 11:28:06;;;;;;;11.40;4.20;;;;;;;-145.69;99.44;73818.81;5057378;28;20192;-79
2022/01/28 11:30:33;;;;;;;7.10;3.80;;;;;;;-145.69;100.00;73864.63;5062501;28;20665;-79
2022/01/28 11:33:02;;;;;;;13.60;4.00;;;;;;;-145.69;100.00;73854.66;5074598;28;20198;-78
2022/01/28 11:35:31;;;;;;;13.77;4.73;;;;;;;-145.69;98.86;73798.91;5074383;28;20206;-77
2022/01/28 11:38:04;;;;;;;9.27;3.93;;;;;;;-145.69;97.38;73782.97;5074384;28;20550;-77
2022/01/28 11:40:52;;;;;;;8.20;3.80;;;;;;;-145.69;99.01;73800.91;5074581;28;20558;-77
2022/01/28 11:43:20;;;;;;;8.13;3.87;;;;;;;-145.69;99.07;73802.88;5074246;28;20191;-77
2022/01/28 11:45:47;;;;;;;8.63;4.00;;;;;;;-145.69;98.98;73812.84;5074044;28;20597;-78
2022/01/28 11:48:14;;;;;;;11.27;3.33;;;;;;;-145.69;98.99;73834.75;5074301;28;20681;-78
2022/01/28 11:50:40;;;;;;;7.77;4.13;;;;;;;-145.69;99.37;73852.66;5074098;28;20581;-78
2022/01/28 11:53:24;;;;;;;7.70;3.73;;;;;;;-145.69;100.00;73862.63;5073867;28;20205;-78
2022/01/28 11:56:02;;;;;;;8.47;3.97;;;;;;;-145.69;100.00;73890.50;5057641;28;20213;-76
2022/01/28 11:58:53;;;;;;;8.83;4.33;;;;;;;-145.69;100.00;73872.56;5066721;28;20531;-77
2022/01/28 12:01:23;;;;;;;12.77;4.37;;;;;;;-145.69;100.00;73864.63;5054199;28;20663;-76
2022/01/28 12:03:50;;;;;;;10.87;4.03;;;;;;;-145.69;99.42;73858.63;5061743;28;20201;-77
2022/01/28 12:06:18;;;;;;;8.13;3.50;;;;;;;-145.69;97.62;73852.66;5073744;28;20199;-76
2022/01/28 12:08:46;;;;;;;7.30;3.67;;;;;;;-145.69;98.57;73872.56;5073836;28;20230;-77